Yangquan, China
Current Conditions -  °F | °C
As of 11:00 AM on Saturday 20 Dec 2014 (Local Time) from ZBYN Reporting Station
Clear Clear  
Wind Chill: 17°   Ceiling: Unl
Heat Index: 23°   Visibility: 6mi
Dew Point: -8°   Wind: 4mph
Humidity: 26%   Direction: NA
Pressure: 30.33"   Gusts: NA
Location:  37.87°N, 113.57°E
Report Text: ZBYN 200300Z VRB02MPS CAVOK M05/M22 Q1027 NOSIG
Loading
Personal Weather Stations






























Interactive Weather Map New forecast layout! Learn more

10-Day Weather Forecast

Advertisements
Track Severe Weather on mobile